createdAt,value
2019-01-21T00:01:35.692Z,100659.05
2019-01-21T00:04:51.792Z,100649.74
2019-01-21T00:08:07.697Z,100664.70
2019-01-21T00:11:30.083Z,100655.94
2019-01-21T00:14:45.208Z,100659.94
2019-01-21T00:18:00.807Z,100663.05
2019-01-21T00:21:23.185Z,100661.11
2019-01-21T00:24:38.695Z,100663.89
2019-01-21T00:28:01.735Z,100661.77
2019-01-21T00:31:17.308Z,100610.22
2019-01-21T00:34:40.819Z,100596.15
2019-01-21T00:37:57.130Z,100641.86
2019-01-21T00:41:19.521Z,100648.31
2019-01-21T00:44:35.526Z,100638.80
2019-01-21T00:47:58.238Z,100643.75
2019-01-21T00:51:13.898Z,100640.81
2019-01-21T00:54:36.659Z,100635.03
2019-01-21T00:57:51.615Z,100642.80
2019-01-21T01:01:14.005Z,100648.63
2019-01-21T01:04:29.498Z,100654.34
2019-01-21T01:07:52.258Z,100662.52
2019-01-21T01:11:08.135Z,100666.72
2019-01-21T01:14:30.534Z,100673.82
2019-01-21T01:17:45.702Z,100683.53
2019-01-21T01:21:01.175Z,100682.53
2019-01-21T01:24:23.682Z,100661.24
2019-01-21T01:27:39.256Z,100637.09
2019-01-21T01:30:54.622Z,100687.52
2019-01-21T01:34:17.035Z,100684.91
2019-01-21T01:37:32.679Z,100691.27
2019-01-21T01:40:55.382Z,100690.01
2019-01-21T01:44:11.333Z,100688.69
2019-01-21T01:47:34.387Z,100687.75
2019-01-21T01:50:50.000Z,100686.79
2019-01-21T01:54:12.510Z,100689.98
2019-01-21T01:57:27.729Z,100615.70
2019-01-21T02:00:50.440Z,100683.39
2019-01-21T02:04:06.068Z,100679.67
2019-01-21T02:07:21.394Z,100682.27
2019-01-21T02:10:43.804Z,100683.46
2019-01-21T02:13:59.114Z,100684.95
2019-01-21T02:17:14.421Z,100685.33
2019-01-21T02:20:58.077Z,100690.59
2019-01-21T02:24:14.856Z,100692.36
2019-01-21T02:27:50.380Z,100623.06
2019-01-21T02:35:33.701Z,100696.88
2019-01-21T02:38:54.652Z,100698.70
2019-01-21T02:42:40.983Z,100676.66
2019-01-21T02:46:04.632Z,100698.24
2019-01-21T02:50:05.929Z,100699.80
2019-01-21T02:54:07.543Z,100699.75
2019-01-21T02:57:42.870Z,100691.59
2019-01-21T03:01:29.078Z,100703.30
2019-01-21T03:05:09.743Z,100668.42
2019-01-21T03:08:45.271Z,100699.13
2019-01-21T03:12:46.625Z,100698.53
2019-01-21T03:16:21.820Z,100674.37
2019-01-21T03:24:48.084Z,100690.91
2019-01-21T03:28:24.648Z,100692.30
2019-01-21T03:32:26.440Z,100692.40
2019-01-21T03:36:00.974Z,100693.45
2019-01-21T03:39:39.176Z,100688.61
2019-01-21T03:43:29.426Z,100689.80
2019-01-21T03:47:04.449Z,100578.53
2019-01-21T03:51:03.284Z,100685.91
2019-01-21T03:59:03.936Z,100685.69
2019-01-21T04:02:39.174Z,100681.75
2019-01-21T04:06:00.951Z,100679.73
2019-01-21T04:09:41.655Z,100689.77
2019-01-21T04:17:45.990Z,100683.30
2019-01-21T04:25:54.541Z,100694.05
2019-01-21T04:30:02.477Z,100684.81
2019-01-21T04:33:38.321Z,100683.31
2019-01-21T04:37:46.506Z,100682.75
2019-01-21T04:41:11.327Z,100684.20
2019-01-21T04:45:11.441Z,100685.81
2019-01-21T04:48:34.054Z,100689.20
2019-01-21T04:52:35.166Z,100691.56
2019-01-21T04:56:34.767Z,100685.34
2019-01-21T05:00:08.075Z,100685.72
2019-01-21T05:04:11.293Z,100683.63
2019-01-21T05:08:13.518Z,100689.88
2019-01-21T05:12:03.183Z,100688.11
2019-01-21T05:16:28.434Z,100689.06
2019-01-21T05:20:17.588Z,100687.10
2019-01-21T05:24:45.177Z,100682.99
2019-01-21T05:29:00.303Z,100678.57
2019-01-21T05:33:11.433Z,100678.39
2019-01-21T05:37:34.766Z,100673.89
2019-01-21T05:41:07.186Z,100670.44
2019-01-21T05:44:49.084Z,100673.57
2019-01-21T05:48:56.842Z,100664.00
2019-01-21T05:53:17.907Z,100662.88
2019-01-21T05:57:15.821Z,100660.51
2019-01-21T06:01:02.225Z,100660.87
2019-01-21T06:05:15.837Z,100666.23
2019-01-21T06:08:48.514Z,100672.20
2019-01-21T06:13:10.878Z,100663.66
2019-01-21T06:16:53.367Z,100669.10
2019-01-21T06:21:05.572Z,100670.55
2019-01-21T06:25:05.267Z,100677.65
2019-01-21T06:28:54.530Z,100685.88
2019-01-21T06:32:40.294Z,100692.45
2019-01-21T06:36:13.776Z,100694.73
2019-01-21T06:40:18.923Z,100702.83
2019-01-21T06:44:40.351Z,100698.84
2019-01-21T06:48:37.062Z,100700.89
2019-01-21T06:52:32.128Z,100685.29
2019-01-21T06:56:47.423Z,100691.95
2019-01-21T07:00:50.799Z,100691.66
2019-01-21T07:04:29.003Z,100699.91
2019-01-21T07:08:30.932Z,100702.42
2019-01-21T07:12:21.309Z,100698.50
2019-01-21T07:16:08.228Z,100701.60
2019-01-21T07:20:06.262Z,100706.75
2019-01-21T07:24:05.177Z,100710.12
2019-01-21T07:28:23.746Z,100705.39
2019-01-21T07:31:57.118Z,100698.03
2019-01-21T07:36:04.848Z,100718.59
2019-01-21T07:39:56.200Z,100721.83
2019-01-21T07:43:45.108Z,100727.41
2019-01-21T07:47:36.014Z,100735.38
2019-01-21T07:52:01.159Z,100734.95
2019-01-21T07:55:51.256Z,100734.11
2019-01-21T07:59:44.191Z,100734.41
2019-01-21T08:03:47.176Z,100738.36
2019-01-21T08:07:31.954Z,100731.13
2019-01-21T08:11:35.035Z,100738.06
2019-01-21T08:15:09.503Z,100746.40
2019-01-21T08:18:50.062Z,100748.08
2019-01-21T08:22:52.559Z,100758.02
2019-01-21T08:26:45.813Z,100751.35
2019-01-21T08:30:28.370Z,100755.52
2019-01-21T08:34:14.423Z,100757.54
2019-01-21T08:37:38.891Z,100767.55
2019-01-21T08:41:22.583Z,100774.34
2019-01-21T08:45:10.006Z,100774.83
2019-01-21T08:48:55.578Z,100781.97
2019-01-21T08:52:46.852Z,100781.66
2019-01-21T08:56:51.987Z,100789.90
2019-01-21T09:00:27.370Z,100790.70
2019-01-21T09:04:32.604Z,100784.30
2019-01-21T09:08:55.410Z,100778.53
2019-01-21T09:12:55.247Z,100772.36
2019-01-21T09:16:39.919Z,100764.19
2019-01-21T09:20:40.095Z,100772.03
2019-01-21T09:24:24.171Z,100773.55
2019-01-21T09:28:11.576Z,100770.16
2019-01-21T09:32:05.541Z,100760.95
2019-01-21T09:36:24.466Z,100766.53
2019-01-21T09:40:25.803Z,100763.49
2019-01-21T09:43:58.062Z,100765.10
2019-01-21T09:46:59.451Z,100765.17
2019-01-21T09:50:04.266Z,100773.09
2019-01-21T09:53:07.458Z,100763.88
2019-01-21T09:56:10.392Z,100769.00
2019-01-21T09:59:13.323Z,100763.54
2019-01-21T10:02:23.129Z,100749.02
2019-01-21T10:05:30.415Z,100747.28
2019-01-21T10:09:29.383Z,100744.23
2019-01-21T10:13:50.788Z,100747.11
2019-01-21T10:18:09.217Z,100754.20
2019-01-21T10:22:19.054Z,100748.50
2019-01-21T10:26:21.604Z,100746.78
2019-01-21T10:30:07.904Z,100740.92
2019-01-21T10:34:13.893Z,100734.30
2019-01-21T10:38:42.291Z,100739.20
2019-01-21T10:42:17.390Z,100737.42
2019-01-21T10:46:08.106Z,100732.94
2019-01-21T10:50:00.030Z,100734.45
2019-01-21T10:53:54.505Z,100717.23
2019-01-21T10:57:50.846Z,100713.53
2019-01-21T11:01:26.147Z,100714.93
2019-01-21T11:05:15.313Z,100710.94
2019-01-21T11:09:17.723Z,100705.34
2019-01-21T11:12:37.067Z,100689.31
2019-01-21T11:16:38.500Z,100695.62
2019-01-21T11:19:56.874Z,100691.94
2019-01-21T11:23:58.594Z,100683.55
2019-01-21T11:27:33.799Z,100684.68
2019-01-21T11:31:35.208Z,100674.64
2019-01-21T11:35:00.096Z,100681.14
2019-01-21T11:38:33.288Z,100623.78
2019-01-21T11:41:54.594Z,100678.72
2019-01-21T11:50:10.491Z,100682.77
2019-01-21T11:53:32.757Z,100602.06
2019-01-21T11:57:34.352Z,100576.09
2019-01-21T12:01:01.739Z,100674.70
2019-01-21T12:04:22.466Z,100596.97
2019-01-21T12:07:57.416Z,100665.33
2019-01-21T12:11:44.304Z,100660.08
2019-01-21T12:15:19.248Z,100658.23
2019-01-21T12:19:16.341Z,100640.84
2019-01-21T12:22:50.945Z,100641.47
2019-01-21T12:26:52.526Z,100638.55
2019-01-21T12:30:27.780Z,100646.53
2019-01-21T12:34:29.082Z,100649.95
2019-01-21T12:38:04.601Z,100645.55
2019-01-21T12:41:42.945Z,100635.38
2019-01-21T12:45:44.292Z,100627.84
2019-01-21T12:49:21.832Z,100627.58
2019-01-21T12:52:45.868Z,100619.19
2019-01-21T12:56:21.323Z,100622.78
2019-01-21T13:00:22.626Z,100606.35
2019-01-21T13:03:57.033Z,100551.50
2019-01-21T13:07:32.840Z,100606.91
2019-01-21T13:11:20.510Z,100602.72
2019-01-21T13:14:39.593Z,100594.34
2019-01-21T13:18:05.951Z,100591.98
2019-01-21T13:21:55.344Z,100593.34
2019-01-21T13:25:33.601Z,100591.44
2019-01-21T13:29:03.275Z,100587.38
2019-01-21T13:32:34.430Z,100581.92
2019-01-21T13:36:35.747Z,100585.42
2019-01-21T13:40:11.347Z,100501.23
2019-01-21T13:44:06.640Z,100571.30
2019-01-21T13:47:28.912Z,100482.12
2019-01-21T13:51:30.215Z,100564.31
2019-01-21T13:55:06.338Z,100564.80
2019-01-21T13:59:14.824Z,100565.73
2019-01-21T14:02:33.791Z,100559.11
2019-01-21T14:06:09.031Z,100549.78
2019-01-21T14:10:05.897Z,100546.65
2019-01-21T14:13:40.938Z,100548.16
2019-01-21T14:17:15.724Z,100541.98
2019-01-21T14:21:17.173Z,100431.58
2019-01-21T14:24:52.346Z,100534.89
2019-01-21T14:28:53.908Z,100541.52
2019-01-21T14:32:34.640Z,100525.53
2019-01-21T14:36:22.839Z,100516.94
2019-01-21T14:39:39.984Z,100509.78
2019-01-21T14:43:41.412Z,100500.75
2019-01-21T14:47:01.291Z,100491.77
2019-01-21T14:51:02.859Z,100486.03
2019-01-21T14:54:37.827Z,100432.65
2019-01-21T14:58:23.627Z,100475.81
2019-01-21T15:01:58.930Z,100389.93
2019-01-21T15:05:37.139Z,100473.38
2019-01-21T15:13:47.043Z,100475.08
2019-01-21T15:17:14.157Z,100469.80
2019-01-21T15:20:32.131Z,100481.72
2019-01-21T15:24:20.234Z,100379.81
2019-01-21T15:28:21.562Z,100489.82
2019-01-21T15:32:22.903Z,100490.37
2019-01-21T15:36:09.710Z,100486.20
2019-01-21T15:39:38.243Z,100480.77
2019-01-21T15:47:36.570Z,100482.33
2019-01-21T15:51:38.249Z,100477.22
2019-01-21T15:55:13.567Z,100475.23
2019-01-21T15:58:48.653Z,100483.03
2019-01-21T16:02:49.957Z,100485.13
2019-01-21T16:06:15.818Z,100499.14
2019-01-21T16:09:54.264Z,100499.52
2019-01-21T16:13:56.960Z,100500.23
2019-01-21T16:17:30.364Z,100489.89
2019-01-21T16:21:19.283Z,100398.02
2019-01-21T16:24:54.162Z,100488.73
2019-01-21T16:28:55.776Z,100490.53
2019-01-21T16:32:30.511Z,100480.19
2019-01-21T16:36:16.743Z,100483.48
2019-01-21T16:39:54.739Z,100477.80
2019-01-21T16:43:10.549Z,100475.50
2019-01-21T16:46:32.928Z,100464.16
2019-01-21T16:49:48.270Z,100453.52
2019-01-21T16:53:11.365Z,100456.53
2019-01-21T16:56:27.419Z,100455.09
2019-01-21T16:59:50.066Z,100464.69
2019-01-21T17:03:05.141Z,100448.13
2019-01-21T17:06:20.479Z,100448.39
2019-01-21T17:09:35.641Z,100450.45
2019-01-21T17:12:58.024Z,100462.09
2019-01-21T17:16:13.502Z,100472.55
2019-01-21T17:19:28.720Z,100472.08
2019-01-21T17:22:51.133Z,100468.73
2019-01-21T17:26:06.510Z,100458.88
2019-01-21T17:29:21.523Z,100450.87
2019-01-21T17:32:43.917Z,100452.07
2019-01-21T17:36:00.270Z,100440.61
2019-01-21T17:39:43.914Z,100439.69
2019-01-21T17:42:59.882Z,100424.92
2019-01-21T17:46:15.349Z,100428.98
2019-01-21T17:49:30.679Z,100432.94
2019-01-21T17:52:53.332Z,100423.44
2019-01-21T17:56:08.422Z,100431.51
2019-01-21T17:59:24.121Z,100423.87
2019-01-21T18:02:46.687Z,100423.44
2019-01-21T18:06:02.125Z,100417.30
2019-01-21T18:09:24.824Z,100409.80
2019-01-21T18:12:40.782Z,100416.98
2019-01-21T18:15:55.987Z,100358.23
2019-01-21T18:19:18.383Z,100400.41
2019-01-21T18:22:33.623Z,100384.41
2019-01-21T18:25:56.448Z,100410.20
2019-01-21T18:29:11.876Z,100404.71
2019-01-21T18:32:34.573Z,100410.10
2019-01-21T18:35:52.998Z,100412.57
2019-01-21T18:39:15.768Z,100416.20
2019-01-21T18:42:31.307Z,100407.86
2019-01-21T18:45:53.723Z,100398.38
2019-01-21T18:49:09.811Z,100407.72
2019-01-21T18:52:32.469Z,100392.02
2019-01-21T18:55:48.163Z,100407.92
2019-01-21T18:59:10.650Z,100299.39
2019-01-21T19:02:26.647Z,100340.78
2019-01-21T19:05:42.152Z,100395.31
2019-01-21T19:09:07.481Z,100385.53
2019-01-21T19:12:23.669Z,100387.78
2019-01-21T19:15:46.138Z,100391.75
2019-01-21T19:19:02.161Z,100384.18
2019-01-21T19:22:24.961Z,100384.80
2019-01-21T19:25:41.236Z,100387.54
2019-01-21T19:28:44.977Z,100298.22
2019-01-21T19:32:07.344Z,100380.36
2019-01-21T19:35:24.512Z,100373.67
2019-01-21T19:38:47.012Z,100360.00
2019-01-21T19:42:03.035Z,100361.59
2019-01-21T19:45:18.261Z,100355.38
2019-01-21T19:48:41.162Z,100355.88
2019-01-21T19:52:00.235Z,100347.20
2019-01-21T19:55:26.511Z,100365.13
2019-01-21T19:58:42.433Z,100352.37
2019-01-21T20:01:46.040Z,100353.41
2019-01-21T20:05:01.526Z,100353.53
2019-01-21T20:08:23.997Z,100348.84
2019-01-21T20:11:40.021Z,100342.72
2019-01-21T20:19:05.407Z,100295.30
2019-01-21T20:22:21.449Z,100227.06
2019-01-21T20:25:44.380Z,100335.83
2019-01-21T20:29:00.207Z,100289.98
2019-01-21T20:32:22.731Z,100328.18
2019-01-21T20:35:38.496Z,100326.33
2019-01-21T20:39:00.979Z,100335.48
2019-01-21T20:42:16.769Z,100332.98
2019-01-21T20:45:39.285Z,100327.59
2019-01-21T20:48:54.314Z,100329.77
2019-01-21T20:52:17.465Z,100329.21
2019-01-21T20:55:33.226Z,100270.46
2019-01-21T20:58:55.741Z,100322.50
2019-01-21T21:02:11.097Z,100322.37
2019-01-21T21:05:26.746Z,100312.36
2019-01-21T21:08:49.269Z,100203.18
2019-01-21T21:12:04.697Z,100311.48
2019-01-21T21:15:21.065Z,100314.28
2019-01-21T21:18:43.544Z,100189.04
2019-01-21T21:21:58.652Z,100304.66
2019-01-21T21:25:21.527Z,100176.25
2019-01-21T21:28:37.240Z,100302.95
2019-01-21T21:31:59.642Z,100193.37
2019-01-21T21:35:14.800Z,100294.06
2019-01-21T21:38:37.248Z,100290.67
2019-01-21T21:41:52.412Z,100289.56
2019-01-21T21:45:15.927Z,100290.95
2019-01-21T21:48:32.879Z,100282.35
2019-01-21T21:51:55.391Z,100289.77
2019-01-21T21:55:10.742Z,100284.59
2019-01-21T21:58:34.120Z,100278.32
2019-01-21T22:01:49.534Z,100268.94
2019-01-21T22:05:06.678Z,100273.41
2019-01-21T22:08:22.962Z,100258.98
2019-01-21T22:11:45.449Z,100261.44
2019-01-21T22:14:48.325Z,100266.67
2019-01-21T22:18:04.296Z,100264.08
2019-01-21T22:21:26.655Z,100249.16
2019-01-21T22:24:42.317Z,100225.77
2019-01-21T22:28:04.984Z,100243.72
2019-01-21T22:31:20.702Z,100236.89
2019-01-21T22:34:43.366Z,100238.06
2019-01-21T22:37:58.985Z,100233.97
2019-01-21T22:41:21.711Z,100233.30
2019-01-21T22:44:24.635Z,100232.54
2019-01-21T22:47:27.838Z,100236.09
2019-01-21T22:50:31.411Z,100229.95
2019-01-21T22:53:35.163Z,100228.25
2019-01-21T22:56:38.438Z,100224.83
2019-01-21T22:59:41.358Z,100228.66
2019-01-21T23:02:44.274Z,100217.56
2019-01-21T23:05:47.302Z,100213.86
2019-01-21T23:08:50.331Z,100211.62
2019-01-21T23:11:53.662Z,100206.45
2019-01-21T23:14:56.999Z,100203.98
2019-01-21T23:18:04.360Z,100199.42
2019-01-21T23:21:05.659Z,100186.45
2019-01-21T23:24:09.318Z,100186.01
2019-01-21T23:27:12.340Z,100173.74
2019-01-21T23:30:15.832Z,100175.42
2019-01-21T23:33:19.419Z,100170.31
2019-01-21T23:36:22.708Z,100164.34
2019-01-21T23:39:26.019Z,100162.16
2019-01-21T23:42:29.310Z,100158.19
2019-01-21T23:45:32.611Z,100153.98
2019-01-21T23:48:36.300Z,100154.20
2019-01-21T23:51:39.224Z,100148.81
2019-01-21T23:54:42.120Z,100138.41
2019-01-21T23:57:45.371Z,100129.80
